Time;durP1;ratioP1;P1;durP2;ratioP2;P2;SDS_P1;SDS_P2;PMS_P1;PMS_P2;Temp;Humidity;BMP_temperature;BMP_pressure;BME280_temperature;BME280_humidity;BME280_pressure;Samples;Min_cycle;Max_cycle;Signal;HPM_P1;HPM_P2
2022/11/11 00:01:48;;;;;;;17.13;11.68;;;16.00;99.90;;;;;;5046191;28;20375;-75
2022/11/11 00:04:34;;;;;;;15.52;11.15;;;15.90;99.90;;;;;;5042611;28;20049;-77
2022/11/11 00:07:20;;;;;;;16.05;10.25;;;15.90;99.90;;;;;;5052311;28;20505;-75
2022/11/11 00:10:07;;;;;;;16.65;11.90;;;16.00;99.90;;;;;;5061813;28;20099;-75
2022/11/11 00:12:53;;;;;;;;;;;15.90;99.90;;;;;;5062949;28;20045;-76
2022/11/11 00:15:39;;;;;;;13.77;10.80;;;15.90;99.90;;;;;;5057100;28;19925;-75
2022/11/11 00:27:39;;;;;;;16.02;11.48;;;15.80;99.90;;;;;;5054849;28;20491;-74
2022/11/11 00:30:26;;;;;;;16.63;11.55;;;15.80;99.90;;;;;;5058755;28;20049;-74
2022/11/11 00:33:12;;;;;;;18.08;10.60;;;15.80;99.90;;;;;;5054482;28;20098;-74
2022/11/11 00:35:59;;;;;;;17.55;11.68;;;15.80;99.90;;;;;;5048647;28;20062;-74
2022/11/11 00:38:45;;;;;;;17.77;11.65;;;15.80;99.90;;;;;;5058966;28;20115;-74
2022/11/11 00:41:31;;;;;;;15.82;10.57;;;15.70;99.90;;;;;;5060396;28;20060;-74
2022/11/11 00:44:17;;;;;;;17.77;11.93;;;15.70;99.90;;;;;;5041419;28;20055;-75
2022/11/11 00:53:25;;;;;;;17.52;11.63;;;15.60;99.90;;;;;;5065792;28;20056;-77
2022/11/11 00:56:12;;;;;;;12.15;9.05;;;15.60;99.90;;;;;;5065429;28;20048;-77
2022/11/11 00:58:58;;;;;;;19.42;11.18;;;15.60;99.90;;;;;;5050602;28;20529;-77
2022/11/11 01:01:45;;;;;;;16.00;10.05;;;15.70;99.90;;;;;;5049352;28;20052;-77
2022/11/11 01:04:30;;;;;;;16.37;9.57;;;15.70;99.90;;;;;;5041203;28;20044;-78
2022/11/11 01:07:17;;;;;;;13.07;8.93;;;15.70;99.90;;;;;;5052908;28;20370;-77
2022/11/11 01:10:03;;;;;;;13.52;8.82;;;15.70;99.90;;;;;;5059123;28;20072;-78
2022/11/11 01:13:10;;;;;;;13.77;9.18;;;15.70;99.90;;;;;;5065841;28;20052;-75
2022/11/11 01:16:00;;;;;;;14.30;8.77;;;15.70;99.90;;;;;;5048230;28;20040;-74
2022/11/11 01:18:48;;;;;;;12.07;8.13;;;15.70;99.90;;;;;;5045559;28;20056;-74
2022/11/11 01:21:34;;;;;;;17.63;9.50;;;15.60;99.90;;;;;;5064420;28;20123;-75
2022/11/11 01:24:20;;;;;;;12.93;8.65;;;15.60;99.90;;;;;;5051604;28;20868;-75
2022/11/11 01:27:06;;;;;;;13.48;8.85;;;15.60;99.90;;;;;;5063725;28;20051;-76
2022/11/11 01:29:53;;;;;;;14.93;10.13;;;15.70;99.90;;;;;;5052054;28;20363;-76
2022/11/11 01:32:40;;;;;;;14.02;9.40;;;15.60;99.90;;;;;;5060634;28;20185;-75
2022/11/11 01:35:26;;;;;;;16.08;11.15;;;15.60;99.90;;;;;;5051225;28;20380;-75
2022/11/11 01:38:12;;;;;;;15.40;10.15;;;15.60;99.90;;;;;;5054607;28;20056;-76
2022/11/11 01:40:58;;;;;;;13.52;8.82;;;15.60;99.90;;;;;;5065430;28;20037;-76
2022/11/11 01:43:44;;;;;;;18.95;10.93;;;15.60;99.90;;;;;;5047671;28;20081;-75
2022/11/11 01:46:41;;;;;;;12.63;10.02;;;15.60;99.90;;;;;;5064565;28;20040;-74
2022/11/11 01:49:33;;;;;;;14.48;10.23;;;15.60;99.90;;;;;;5055296;28;20165;-75
2022/11/11 01:52:19;;;;;;;15.50;10.25;;;15.60;99.90;;;;;;5043581;28;20498;-77
2022/11/11 01:55:12;;;;;;;;;;;15.60;99.90;;;;;;5036893;28;20049;-77
2022/11/11 01:58:05;;;;;;;15.75;9.30;;;15.60;99.90;;;;;;5050263;28;19925;-76
2022/11/11 02:00:51;;;;;;;12.75;8.85;;;15.60;99.90;;;;;;5050347;28;20044;-75
2022/11/11 02:05:40;;;;;;;11.98;9.82;;;15.60;99.90;;;;;;5050595;28;20045;-75
2022/11/11 02:06:52;;;;;;;11.18;7.97;;;15.60;99.90;;;;;;5050064;28;20033;-75
2022/11/11 02:09:42;;;;;;;14.02;9.35;;;15.60;99.90;;;;;;5052014;28;20053;-75
2022/11/11 02:15:34;;;;;;;12.80;9.38;;;15.60;99.90;;;;;;5066513;28;20056;-76
2022/11/11 02:18:21;;;;;;;16.55;10.13;;;15.70;99.90;;;;;;5049600;28;20090;-76
2022/11/11 02:21:07;;;;;;;12.60;8.90;;;15.60;99.90;;;;;;5035220;28;20061;-75
2022/11/11 02:24:09;;;;;;;13.00;8.65;;;15.70;99.90;;;;;;5035237;28;20044;-78
2022/11/11 02:26:57;;;;;;;12.18;8.65;;;15.70;99.90;;;;;;5035474;28;20049;-75
2022/11/11 02:29:47;;;;;;;13.90;9.40;;;15.70;99.90;;;;;;5035329;28;20135;-75
2022/11/11 02:32:33;;;;;;;13.40;8.93;;;15.70;99.90;;;;;;5049688;28;20368;-76
2022/11/11 02:35:31;;;;;;;11.32;9.25;;;15.70;99.90;;;;;;5035773;28;20056;-76
2022/11/11 02:38:16;;;;;;;12.88;8.68;;;15.70;99.90;;;;;;5049219;28;20052;-76
2022/11/11 02:44:07;;;;;;;12.73;8.85;;;15.70;99.90;;;;;;5065776;28;20870;-76
2022/11/11 02:46:53;;;;;;;13.85;9.07;;;15.70;99.90;;;;;;5034827;28;20084;-76
2022/11/11 02:49:39;;;;;;;11.77;7.57;;;15.60;99.90;;;;;;5066205;28;20089;-75
2022/11/11 02:52:26;;;;;;;11.07;7.30;;;15.60;99.90;;;;;;5055255;28;20068;-77
2022/11/11 02:55:12;;;;;;;11.48;7.82;;;15.60;99.90;;;;;;5068841;28;20072;-76
2022/11/11 02:58:00;;;;;;;10.60;7.88;;;15.60;99.90;;;;;;5069019;28;20518;-76
2022/11/11 03:00:45;;;;;;;11.77;8.40;;;15.60;99.90;;;;;;5048869;28;20049;-76
2022/11/11 03:03:32;;;;;;;8.45;6.53;;;15.60;99.90;;;;;;5049232;28;20095;-75
2022/11/11 03:06:18;;;;;;;11.13;7.90;;;15.60;99.90;;;;;;5035186;28;20094;-76
2022/11/11 03:09:04;;;;;;;10.95;8.65;;;15.60;99.90;;;;;;5052375;28;20052;-76
2022/11/11 03:11:51;;;;;;;11.43;7.25;;;15.50;99.90;;;;;;5069206;28;20130;-76
2022/11/11 03:14:37;;;;;;;12.38;7.88;;;15.50;99.90;;;;;;5054778;28;20048;-77
2022/11/11 03:17:38;;;;;;;10.13;6.95;;;15.50;99.90;;;;;;5055145;28;20158;-76
2022/11/11 03:23:29;;;;;;;8.93;6.45;;;15.40;99.90;;;;;;5067710;28;20058;-76
2022/11/11 03:26:16;;;;;;;12.23;8.23;;;15.40;99.90;;;;;;5068347;28;20494;-76
2022/11/11 03:29:02;;;;;;;16.60;7.22;;;15.40;99.90;;;;;;5068551;28;20037;-75
2022/11/11 03:31:48;;;;;;;10.50;6.80;;;15.50;99.90;;;;;;5068825;28;20052;-75
2022/11/11 03:34:35;;;;;;;8.20;6.82;;;15.50;99.90;;;;;;5053977;28;20056;-76
2022/11/11 03:40:26;;;;;;;9.85;7.65;;;15.50;99.90;;;;;;5067784;28;20049;-77
2022/11/11 03:43:15;;;;;;;11.93;7.28;;;15.50;99.90;;;;;;5053789;28;20245;-77
2022/11/11 03:46:03;;;;;;;8.88;6.22;;;15.50;99.90;;;;;;5052367;28;20110;-76
2022/11/11 03:48:49;;;;;;;10.40;6.03;;;15.50;99.90;;;;;;5068028;28;20668;-75
2022/11/11 03:51:36;;;;;;;9.38;5.93;;;15.50;99.90;;;;;;5066756;28;20071;-75
2022/11/11 03:54:22;;;;;;;9.13;6.30;;;15.50;99.90;;;;;;5068960;28;20056;-76
2022/11/11 04:00:19;;;;;;;10.40;5.97;;;15.50;99.90;;;;;;5066438;28;20070;-76
2022/11/11 04:12:30;;;;;;;9.73;7.28;;;15.30;99.90;;;;;;5067098;28;20044;-76
2022/11/11 04:21:42;;;;;;;9.88;6.72;;;15.30;99.90;;;;;;5067408;28;20045;-76
2022/11/11 04:21:42;;;;;;;10.15;6.40;;;15.20;99.90;;;;;;5067866;28;20048;-75
2022/11/11 04:27:34;;;;;;;9.65;5.97;;;15.30;99.90;;;;;;5066899;28;20052;-77
2022/11/11 04:30:20;;;;;;;9.88;6.13;;;15.30;99.90;;;;;;5068795;28;20055;-76
2022/11/11 04:33:06;;;;;;;9.37;6.47;;;15.30;99.90;;;;;;5053262;28;20532;-76
2022/11/11 04:35:52;;;;;;;11.45;5.97;;;15.40;99.90;;;;;;5066816;28;20040;-76
2022/11/11 04:41:43;;;;;;;8.05;6.00;;;15.40;99.90;;;;;;5064050;28;20117;-76
2022/11/11 04:48:03;;;;;;;14.15;8.75;;;15.40;99.90;;;;;;5046819;28;20061;-75
2022/11/11 04:50:50;;;;;;;12.18;8.48;;;15.30;99.90;;;;;;5032889;28;20041;-76
2022/11/11 04:53:36;;;;;;;14.15;9.52;;;15.20;99.90;;;;;;5047468;28;20143;-75
2022/11/11 04:56:56;;;;;;;14.15;9.98;;;15.20;99.90;;;;;;5046906;28;20052;-75
2022/11/11 04:59:34;;;;;;;15.98;9.95;;;15.10;99.90;;;;;;5046262;28;20060;-76
2022/11/11 05:09:03;;;;;;;10.40;7.85;;;14.90;99.90;;;;;;5070649;28;20083;-75
2022/11/11 05:11:48;;;;;;;14.32;8.70;;;14.90;99.90;;;;;;5070907;28;20130;-75
2022/11/11 05:27:09;;;;;;;10.27;7.65;;;14.80;99.90;;;;;;5071870;28;20036;-76
2022/11/11 05:29:56;;;;;;;10.40;6.93;;;14.70;99.90;;;;;;5068801;28;20040;-77
2022/11/11 05:32:43;;;;;;;12.82;7.43;;;14.70;99.90;;;;;;5057002;28;20067;-76
2022/11/11 05:35:29;;;;;;;11.38;7.80;;;14.70;99.90;;;;;;5056509;28;20048;-77
2022/11/11 05:38:21;;;;;;;11.65;7.07;;;14.80;99.90;;;;;;5069953;28;20398;-78
2022/11/11 05:41:08;;;;;;;12.20;7.75;;;14.70;99.90;;;;;;5055633;28;20140;-78
2022/11/11 05:43:54;;;;;;;9.95;6.65;;;14.80;99.90;;;;;;5056359;28;20650;-77
2022/11/11 05:46:41;;;;;;;12.95;7.65;;;14.90;99.90;;;;;;5070370;28;20041;-77
2022/11/11 05:49:28;;;;;;;11.82;7.68;;;15.00;99.90;;;;;;5056200;28;20083;-76
2022/11/11 05:52:15;;;;;;;11.02;7.32;;;15.10;99.90;;;;;;5055968;28;20403;-77
2022/11/11 05:55:02;;;;;;;12.43;8.38;;;15.30;99.90;;;;;;5070133;28;20088;-76
2022/11/11 05:57:48;;;;;;;11.30;7.20;;;15.40;99.90;;;;;;5070160;28;20126;-77
2022/11/11 06:00:34;;;;;;;13.15;9.93;;;15.40;99.90;;;;;;5056694;28;20406;-76
2022/11/11 06:03:21;;;;;;;18.30;8.23;;;15.60;99.90;;;;;;5056368;28;20395;-77
2022/11/11 06:06:07;;;;;;;13.52;7.55;;;15.60;99.90;;;;;;5056457;28;20063;-76
2022/11/11 06:08:53;;;;;;;10.07;8.60;;;15.60;99.90;;;;;;5070355;28;20147;-76
2022/11/11 06:11:39;;;;;;;12.20;8.75;;;15.80;99.90;;;;;;5069797;28;20056;-80
2022/11/11 06:14:26;;;;;;;14.35;8.35;;;16.10;99.90;;;;;;5069145;28;20037;-77
2022/11/11 06:17:12;;;;;;;9.23;7.93;;;16.50;99.90;;;;;;5071335;28;20040;-77
2022/11/11 06:19:58;;;;;;;11.17;7.53;;;17.10;99.90;;;;;;5054730;28;20337;-77
2022/11/11 06:22:55;;;;;;;14.00;8.63;;;17.60;99.90;;;;;;5035750;28;20055;-78
2022/11/11 06:28:51;;;;;;;12.60;8.52;;;18.30;99.90;;;;;;5054697;28;20044;-72
2022/11/11 06:31:37;;;;;;;13.13;7.78;;;18.10;99.90;;;;;;5041903;28;20048;-73
2022/11/11 06:34:24;;;;;;;11.82;7.97;;;17.90;99.90;;;;;;5067976;28;20052;-75
2022/11/11 06:37:10;;;;;;;12.05;7.32;;;17.70;99.90;;;;;;5053886;28;20060;-79
2022/11/11 06:39:56;;;;;;;12.00;7.38;;;18.10;99.90;;;;;;5062047;28;20041;-75
2022/11/11 06:42:43;;;;;;;12.77;7.35;;;19.10;99.90;;;;;;5050577;28;20544;-76
2022/11/11 06:45:30;;;;;;;12.23;7.57;;;20.00;99.90;;;;;;5050955;28;20060;-75
2022/11/11 06:48:16;;;;;;;15.40;7.35;;;20.80;99.90;;;;;;5066076;28;20048;-75
2022/11/11 06:51:05;;;;;;;9.77;6.57;;;21.80;99.90;;;;;;5066523;28;20111;-74
2022/11/11 06:53:51;;;;;;;14.48;7.70;;;22.60;99.90;;;;;;5061745;28;20105;-75
2022/11/11 06:56:37;;;;;;;11.25;6.45;;;23.10;99.90;;;;;;5058746;28;20059;-75
2022/11/11 06:59:23;;;;;;;10.70;6.25;;;23.40;99.90;;;;;;5042465;28;20053;-77
2022/11/11 07:02:13;;;;;;;10.40;6.40;;;23.40;99.90;;;;;;5055388;28;20044;-76
2022/11/11 07:05:00;;;;;;;11.63;7.05;;;23.30;99.90;;;;;;5047858;28;20185;-76
2022/11/11 07:07:46;;;;;;;10.32;5.95;;;23.20;99.90;;;;;;5052744;28;20048;-75
2022/11/11 07:10:34;;;;;;;11.02;6.30;;;23.10;99.90;;;;;;5067403;28;20036;-75
2022/11/11 07:13:20;;;;;;;9.25;6.30;;;23.00;99.90;;;;;;5052391;28;20139;-75
2022/11/11 07:16:07;;;;;;;11.45;6.32;;;23.00;99.90;;;;;;5067001;28;20040;-75
2022/11/11 07:18:53;;;;;;;;;;;23.00;99.90;;;;;;5057922;28;20033;-75
2022/11/11 07:21:39;;;;;;;11.02;6.35;;;23.10;99.90;;;;;;5066920;28;19994;-75
2022/11/11 07:24:26;;;;;;;14.45;6.15;;;23.20;99.90;;;;;;5043794;28;20071;-77
2022/11/11 07:27:12;;;;;;;;;;;23.30;99.90;;;;;;5066928;28;20106;-77
2022/11/11 07:29:58;;;;;;;8.38;5.10;;;23.40;99.90;;;;;;5050797;28;20298;-75
2022/11/11 07:32:49;;;;;;;7.45;4.97;;;23.50;99.90;;;;;;5065499;28;20044;-77
2022/11/11 07:35:35;;;;;;;6.15;4.55;;;23.30;99.90;;;;;;5058812;28;20122;-76
2022/11/11 07:38:21;;;;;;;7.95;4.50;;;22.90;99.90;;;;;;5050452;28;20047;-75
2022/11/11 07:41:07;;;;;;;6.75;3.88;;;22.70;99.90;;;;;;5067614;28;20048;-75
2022/11/11 07:43:53;;;;;;;6.85;3.88;;;22.50;99.90;;;;;;5057905;28;20047;-76
2022/11/11 07:46:40;;;;;;;11.73;5.65;;;22.40;99.90;;;;;;5040268;28;20048;-73
2022/11/11 07:49:26;;;;;;;7.35;4.75;;;22.30;99.90;;;;;;5048388;28;20057;-73
2022/11/11 07:52:13;;;;;;;8.68;3.88;;;22.30;99.90;;;;;;5064708;28;20415;-73
2022/11/11 07:54:59;;;;;;;8.48;4.53;;;22.20;99.90;;;;;;5049154;28;20072;-73
2022/11/11 07:57:45;;;;;;;8.20;4.15;;;22.20;99.90;;;;;;5049560;28;20068;-72
2022/11/11 08:00:31;;;;;;;8.00;4.05;;;22.10;99.90;;;;;;5048851;28;20048;-72
2022/11/11 08:03:17;;;;;;;11.98;4.15;;;22.00;99.90;;;;;;5034565;28;20040;-71
2022/11/11 08:06:03;;;;;;;;;;;22.00;99.90;;;;;;5049546;28;20132;-71
2022/11/11 08:08:49;;;;;;;7.68;3.88;;;22.00;99.90;;;;;;5047826;28;19928;-72
2022/11/11 08:14:40;;;;;;;6.00;3.55;;;21.90;99.90;;;;;;5064439;28;20053;-72
2022/11/11 08:17:26;;;;;;;6.78;4.35;;;21.70;99.90;;;;;;5034686;28;20415;-72
2022/11/11 08:20:12;;;;;;;6.20;4.55;;;21.40;99.90;;;;;;5047531;28;20051;-73
2022/11/11 08:22:58;;;;;;;9.85;4.43;;;21.10;99.90;;;;;;5047911;28;20045;-71
2022/11/11 08:26:05;;;;;;;5.97;4.63;;;20.90;99.90;;;;;;5048438;28;20122;-72
2022/11/11 08:28:52;;;;;;;5.68;3.90;;;20.90;99.90;;;;;;5048771;28;20045;-72
2022/11/11 08:31:38;;;;;;;6.38;4.18;;;21.20;99.90;;;;;;5047538;28;20179;-72
2022/11/11 08:34:24;;;;;;;5.63;4.05;;;21.30;99.90;;;;;;5048795;28;20041;-72
2022/11/11 08:37:10;;;;;;;8.45;5.03;;;21.60;99.90;;;;;;5059104;28;20107;-72
2022/11/11 08:39:57;;;;;;;10.20;4.22;;;21.90;99.90;;;;;;5068547;28;20090;-72
2022/11/11 08:42:43;;;;;;;7.35;3.97;;;22.20;99.90;;;;;;5052437;28;20058;-72
2022/11/11 08:45:30;;;;;;;5.18;3.40;;;22.30;99.90;;;;;;5064462;28;20044;-75
2022/11/11 08:48:16;;;;;;;7.70;3.50;;;22.50;99.90;;;;;;5056171;28;20049;-72
2022/11/11 08:51:02;;;;;;;8.30;3.60;;;22.70;99.90;;;;;;5054372;28;20127;-70
2022/11/11 08:53:49;;;;;;;7.82;3.00;;;23.00;99.90;;;;;;5067690;28;20056;-72
2022/11/11 08:56:35;;;;;;;7.53;3.72;;;23.20;99.90;;;;;;5068594;28;20061;-73
2022/11/11 08:59:21;;;;;;;6.07;3.42;;;23.10;99.90;;;;;;5052809;28;20055;-73
2022/11/11 09:02:13;;;;;;;8.35;3.85;;;23.20;99.90;;;;;;5066325;28;20503;-73
2022/11/11 09:04:59;;;;;;;6.63;3.63;;;23.20;99.90;;;;;;5067814;28;20042;-73
2022/11/11 09:07:45;;;;;;;8.98;3.92;;;23.30;99.90;;;;;;5065625;28;20056;-72
2022/11/11 09:10:32;;;;;;;5.93;3.40;;;23.40;99.90;;;;;;5067273;28;20048;-74
2022/11/11 09:13:19;;;;;;;5.88;3.60;;;23.10;99.90;;;;;;5060506;28;20056;-73
2022/11/11 09:16:06;;;;;;;7.75;3.28;;;22.80;99.90;;;;;;5046865;28;20049;-76
2022/11/11 09:18:52;;;;;;;6.10;4.38;;;22.60;99.90;;;;;;5047249;28;20095;-74
2022/11/11 09:21:38;;;;;;;5.38;3.00;;;22.50;99.90;;;;;;5061555;28;20041;-72
2022/11/11 09:24:24;;;;;;;6.57;3.33;;;22.40;99.90;;;;;;5061182;28;20041;-73
2022/11/11 09:27:10;;;;;;;9.32;4.10;;;22.10;99.90;;;;;;5046719;28;20057;-73
2022/11/11 09:29:56;;;;;;;6.45;3.15;;;21.80;99.90;;;;;;5048761;28;20116;-72
2022/11/11 09:32:42;;;;;;;7.80;3.55;;;21.50;99.90;;;;;;5046910;28;20182;-72
2022/11/11 09:35:29;;;;;;;7.70;3.42;;;21.70;99.90;;;;;;5046952;28;20061;-72
2022/11/11 09:38:15;;;;;;;9.85;3.20;;;22.10;99.90;;;;;;5047008;28;20044;-73
2022/11/11 09:41:10;;;;;;;5.68;3.65;;;22.20;99.90;;;;;;5048063;28;20067;-72
2022/11/11 09:43:59;;;;;;;6.88;3.95;;;22.00;99.90;;;;;;5047930;28;20060;-72
2022/11/11 09:46:49;;;;;;;6.00;3.70;;;21.60;99.90;;;;;;5046961;28;20048;-71
2022/11/11 09:49:38;;;;;;;9.73;3.58;;;21.40;99.90;;;;;;5049281;28;20063;-73
2022/11/11 09:52:43;;;;;;;8.13;3.45;;;21.10;99.90;;;;;;5051552;28;20064;-73
2022/11/11 09:55:57;;;;;;;7.65;3.50;;;21.00;99.90;;;;;;5064713;28;20053;-74
2022/11/11 09:58:56;;;;;;;6.93;4.28;;;21.50;99.90;;;;;;5051792;28;20043;-73
2022/11/11 10:01:52;;;;;;;5.60;3.17;;;21.60;99.90;;;;;;5053089;28;20056;-71
2022/11/11 10:05:02;;;;;;;6.78;4.18;;;21.30;99.90;;;;;;5052642;28;20053;-73
2022/11/11 10:07:57;;;;;;;6.47;4.03;;;21.10;99.90;;;;;;5052842;28;20045;-72
2022/11/11 10:10:44;;;;;;;7.50;4.20;;;20.90;99.90;;;;;;5050813;28;20147;-73
2022/11/11 10:13:33;;;;;;;8.23;5.60;;;20.70;99.90;;;;;;5050934;28;20525;-73
2022/11/11 10:16:39;;;;;;;13.20;4.78;;;20.70;99.90;;;;;;5049940;28;20107;-72
2022/11/11 10:19:48;;;;;;;6.75;4.60;;;20.90;99.90;;;;;;5051457;28;20033;-74
2022/11/11 10:22:37;;;;;;;6.38;4.10;;;21.20;99.90;;;;;;5050034;28;20133;-72
2022/11/11 10:25:25;;;;;;;8.18;4.97;;;21.30;99.90;;;;;;5051193;28;20041;-72
2022/11/11 10:28:20;;;;;;;9.90;5.22;;;21.20;99.90;;;;;;5050846;28;20059;-73
2022/11/11 10:31:14;;;;;;;8.32;5.15;;;21.50;99.90;;;;;;5050279;28;20049;-72
2022/11/11 10:34:19;;;;;;;6.10;4.40;;;21.50;99.90;;;;;;5049637;28;20079;-72
2022/11/11 10:37:21;;;;;;;9.00;5.10;;;21.60;99.90;;;;;;5049982;28;20045;-71
2022/11/11 10:40:24;;;;;;;7.68;5.18;;;21.70;99.90;;;;;;5051777;28;20122;-72
2022/11/11 10:43:26;;;;;;;7.50;5.13;;;21.80;99.90;;;;;;5069240;28;20491;-72
2022/11/11 10:46:12;;;;;;;8.65;6.18;;;21.80;99.90;;;;;;5068707;28;20040;-73
2022/11/11 10:49:15;;;;;;;10.02;6.72;;;21.90;99.90;;;;;;5069459;28;20044;-72
2022/11/11 10:52:13;;;;;;;10.13;6.40;;;22.20;99.90;;;;;;5069283;28;20063;-72
2022/11/11 10:55:22;;;;;;;12.20;7.03;;;22.10;99.90;;;;;;5068839;28;20422;-71
2022/11/11 10:58:41;;;;;;;8.80;5.88;;;22.00;99.90;;;;;;5049381;28;20045;-72
2022/11/11 11:01:36;;;;;;;12.93;6.95;;;21.90;99.90;;;;;;5048872;28;20072;-72
2022/11/11 11:04:54;;;;;;;10.32;6.60;;;22.20;99.90;;;;;;5050460;28;20098;-73
2022/11/11 11:07:48;;;;;;;10.35;7.05;;;22.30;99.90;;;;;;5035080;28;20068;-72
2022/11/11 11:10:46;;;;;;;9.02;6.10;;;22.40;99.90;;;;;;5050101;28;20126;-72
2022/11/11 11:13:51;;;;;;;9.32;5.68;;;22.20;99.90;;;;;;5048938;28;20045;-72
2022/11/11 11:16:46;;;;;;;10.07;6.57;;;22.00;99.90;;;;;;5065217;28;20178;-72
2022/11/11 11:19:32;;;;;;;8.10;5.38;;;22.10;99.90;;;;;;5069907;28;20040;-71
2022/11/11 11:22:19;;;;;;;;;;;22.20;99.90;;;;;;5070093;28;20139;-72
2022/11/11 11:25:10;;;;;;;8.02;5.50;;;22.30;99.90;;;;;;5068753;28;19931;-72
2022/11/11 11:28:10;;;;;;;10.68;6.88;;;22.30;99.90;;;;;;5070120;28;20060;-71
2022/11/11 11:31:05;;;;;;;9.30;6.20;;;22.40;99.90;;;;;;5068580;28;20076;-72
2022/11/11 11:33:54;;;;;;;11.93;7.97;;;22.40;99.90;;;;;;4784858;28;20107;-72
2022/11/11 11:36:40;;;;;;;11.93;6.85;;;22.50;99.90;;;;;;5055341;28;20056;-74
2022/11/11 11:39:38;;;;;;;11.30;7.82;;;22.50;99.90;;;;;;5054416;28;20056;-72
2022/11/11 11:42:33;;;;;;;11.65;6.93;;;22.60;99.90;;;;;;5065009;28;20068;-72
2022/11/11 11:45:28;;;;;;;10.40;6.68;;;22.70;99.90;;;;;;5057160;28;20104;-73
2022/11/11 11:49:02;;;;;;;9.07;6.80;;;22.40;99.90;;;;;;5062299;28;20045;-72
2022/11/11 11:51:55;;;;;;;13.40;7.93;;;22.30;99.90;;;;;;5048393;28;20298;-71
2022/11/11 11:54:51;;;;;;;13.13;7.72;;;22.30;99.90;;;;;;5054517;28;20049;-72
2022/11/11 11:57:43;;;;;;;9.48;7.13;;;22.20;99.90;;;;;;5064704;28;20119;-72
2022/11/11 12:00:43;;;;;;;14.32;9.05;;;22.00;99.90;;;;;;5060023;28;20108;-72
2022/11/11 12:03:55;;;;;;;29.25;17.83;;;21.90;99.90;;;;;;5058196;28;20045;-72
2022/11/11 12:06:53;;;;;;;13.38;8.48;;;21.90;99.90;;;;;;5063191;28;20053;-72
2022/11/11 12:09:42;;;;;;;11.70;7.78;;;21.80;99.90;;;;;;5050885;28;20052;-72
2022/11/11 12:12:33;;;;;;;12.82;9.32;;;21.80;99.90;;;;;;5059188;28;20130;-72
2022/11/11 12:15:45;;;;;;;12.88;8.30;;;21.80;99.90;;;;;;5065317;28;20046;-72
2022/11/11 12:18:53;;;;;;;11.82;7.47;;;21.70;99.90;;;;;;5046734;28;20072;-72
2022/11/11 12:21:56;;;;;;;13.88;7.65;;;21.60;99.90;;;;;;5060845;28;20049;-72
2022/11/11 12:25:14;;;;;;;22.85;14.55;;;21.50;99.90;;;;;;5067113;28;20182;-74
2022/11/11 12:28:12;;;;;;;22.52;11.70;;;21.40;99.90;;;;;;5063396;28;20639;-72
2022/11/11 12:31:32;;;;;;;19.70;11.93;;;21.30;99.90;;;;;;5066339;28;20074;-71
2022/11/11 12:34:40;;;;;;;11.10;7.63;;;21.40;99.90;;;;;;5063669;28;20654;-72
2022/11/11 12:38:27;;;;;;;11.45;8.13;;;21.40;99.90;;;;;;5066619;28;20119;-71
2022/11/11 12:41:24;;;;;;;11.35;8.23;;;21.40;99.90;;;;;;5006236;28;20046;-72
2022/11/11 12:44:12;;;;;;;10.30;6.47;;;21.40;99.90;;;;;;5005223;28;20691;-72
2022/11/11 12:47:20;;;;;;;9.55;6.38;;;21.40;99.90;;;;;;5065752;28;20058;-73
2022/11/11 12:50:24;;;;;;;11.88;7.53;;;21.40;99.90;;;;;;5061377;28;20037;-76
2022/11/11 12:53:35;;;;;;;11.95;6.72;;;21.40;99.90;;;;;;5065680;28;20047;-72
2022/11/11 12:56:43;;;;;;;10.30;6.07;;;21.40;99.90;;;;;;5057143;28;20426;-73
2022/11/11 12:59:32;;;;;;;9.07;5.85;;;21.30;99.90;;;;;;5061945;28;20484;-72
2022/11/11 13:02:57;;;;;;;6.80;5.03;;;21.30;99.90;;;;;;5043354;28;20040;-72
2022/11/11 13:05:56;;;;;;;8.38;5.50;;;21.30;99.90;;;;;;5076419;28;20048;-73
2022/11/11 13:08:46;;;;;;;7.32;5.07;;;21.30;99.90;;;;;;5060754;28;20074;-73
2022/11/11 13:12:03;;;;;;;7.32;5.22;;;21.30;99.90;;;;;;5051418;28;20047;-72
2022/11/11 13:14:53;;;;;;;6.93;4.28;;;21.20;99.90;;;;;;5065639;28;20045;-72
2022/11/11 13:17:40;;;;;;;9.25;5.43;;;21.00;99.90;;;;;;5065763;28;20052;-72
2022/11/11 13:20:47;;;;;;;6.93;4.88;;;21.00;99.90;;;;;;5062681;28;20040;-72
2022/11/11 13:23:34;;;;;;;8.35;5.35;;;20.90;99.90;;;;;;5063741;28;20056;-71
2022/11/11 13:26:46;;;;;;;8.25;4.88;;;20.90;99.90;;;;;;5069283;28;20055;-71
2022/11/11 13:30:10;;;;;;;9.07;6.00;;;20.90;99.90;;;;;;5068433;28;20127;-71
2022/11/11 13:33:01;;;;;;;8.60;5.50;;;20.80;99.90;;;;;;5070055;28;20049;-72
2022/11/11 13:35:51;;;;;;;8.15;5.85;;;20.90;99.90;;;;;;5063637;28;20063;-71
2022/11/11 13:38:45;;;;;;;10.50;6.47;;;20.70;99.90;;;;;;5070547;28;20514;-72
2022/11/11 13:41:36;;;;;;;11.20;5.80;;;20.80;99.90;;;;;;5071105;28;20503;-71
2022/11/11 13:44:37;;;;;;;9.70;6.05;;;20.70;99.90;;;;;;5066778;28;20502;-72
2022/11/11 13:47:49;;;;;;;8.00;5.60;;;20.60;99.90;;;;;;5065120;28;20055;-73
2022/11/11 13:50:39;;;;;;;6.85;5.50;;;20.40;99.90;;;;;;5047915;28;20080;-72
2022/11/11 13:53:31;;;;;;;7.90;5.22;;;20.40;99.90;;;;;;5065241;28;20130;-73
2022/11/11 13:56:38;;;;;;;6.65;4.72;;;20.40;99.90;;;;;;5055531;28;20372;-73
2022/11/11 13:59:28;;;;;;;8.32;5.00;;;20.30;99.90;;;;;;5063016;28;20041;-72
2022/11/11 14:02:28;;;;;;;7.95;4.60;;;20.40;99.90;;;;;;5067218;28;20933;-73
2022/11/11 14:05:16;;;;;;;6.53;4.72;;;20.40;99.90;;;;;;5068270;28;20493;-72
2022/11/11 14:08:02;;;;;;;6.50;4.47;;;20.20;99.90;;;;;;5062469;28;20056;-72
2022/11/11 14:10:55;;;;;;;8.73;5.82;;;20.10;99.90;;;;;;5068905;28;20456;-71
2022/11/11 14:13:42;;;;;;;6.57;4.78;;;20.00;99.90;;;;;;5063176;28;20132;-72
2022/11/11 14:16:34;;;;;;;7.20;4.18;;;20.00;99.90;;;;;;5058924;28;20063;-73
2022/11/11 14:19:20;;;;;;;7.85;5.07;;;19.90;99.90;;;;;;5062177;28;20610;-71
2022/11/11 14:22:32;;;;;;;6.50;5.00;;;19.80;99.90;;;;;;5064753;28;20033;-73
2022/11/11 14:25:27;;;;;;;8.73;5.38;;;19.80;99.90;;;;;;5066331;28;20059;-72
2022/11/11 14:28:29;;;;;;;7.57;4.88;;;19.90;99.90;;;;;;5065554;28;20055;-72
2022/11/11 14:31:16;;;;;;;7.78;4.70;;;19.90;99.90;;;;;;5051682;28;20048;-72
2022/11/11 14:34:24;;;;;;;9.85;5.22;;;19.80;99.90;;;;;;5060660;28;20049;-72
2022/11/11 14:37:16;;;;;;;7.25;5.05;;;19.70;99.90;;;;;;5060426;28;20052;-72
2022/11/11 14:40:08;;;;;;;8.65;5.13;;;19.70;99.90;;;;;;5066515;28;20051;-72
2022/11/11 14:42:55;;;;;;;10.05;6.25;;;19.60;99.90;;;;;;5061571;28;20048;-71
2022/11/11 14:45:43;;;;;;;;;;;19.70;99.90;;;;;;5066167;28;20036;-72
2022/11/11 14:48:52;;;;;;;7.97;5.40;;;19.60;99.90;;;;;;5059539;28;19953;-71
2022/11/11 14:51:48;;;;;;;8.02;5.75;;;19.50;99.90;;;;;;5061566;28;20140;-71
2022/11/11 14:54:58;;;;;;;10.93;6.45;;;19.50;99.90;;;;;;5061102;28;20048;-71
2022/11/11 14:57:46;;;;;;;9.00;6.03;;;19.40;99.90;;;;;;5053735;28;20126;-71
2022/11/11 15:00:45;;;;;;;8.88;5.32;;;19.40;99.90;;;;;;5039752;28;20457;-74
2022/11/11 15:03:39;;;;;;;12.52;7.28;;;19.30;99.90;;;;;;5053640;28;20090;-71
2022/11/11 15:06:34;;;;;;;8.10;5.03;;;19.30;99.90;;;;;;5049667;28;20044;-72
2022/11/11 15:09:37;;;;;;;8.38;5.97;;;19.30;99.90;;;;;;5059247;28;20056;-73
2022/11/11 15:12:32;;;;;;;9.32;6.93;;;19.20;99.90;;;;;;5050163;28;20450;-71
2022/11/11 15:15:31;;;;;;;10.23;6.63;;;19.30;99.90;;;;;;5067340;28;20063;-72
2022/11/11 15:18:29;;;;;;;11.10;6.50;;;19.20;99.90;;;;;;5053872;28;20044;-72
2022/11/11 15:21:19;;;;;;;8.75;6.70;;;19.10;99.90;;;;;;5065443;28;20526;-71
2022/11/11 15:24:20;;;;;;;11.80;6.65;;;19.10;99.90;;;;;;5032041;28;20040;-74
2022/11/11 15:27:39;;;;;;;12.77;7.50;;;19.10;99.90;;;;;;4871902;28;20742;-72
2022/11/11 15:30:59;;;;;;;14.90;9.60;;;19.00;99.90;;;;;;5028877;28;20849;-72
2022/11/11 15:33:53;;;;;;;17.38;10.90;;;19.00;99.90;;;;;;4923229;28;21170;-73
2022/11/11 15:37:00;;;;;;;15.93;9.18;;;19.00;99.90;;;;;;5009171;28;20040;-72
2022/11/11 15:39:54;;;;;;;14.60;9.15;;;18.90;99.90;;;;;;5060745;28;20032;-71
2022/11/11 15:42:48;;;;;;;17.60;9.18;;;18.90;99.90;;;;;;5050189;28;20056;-71
2022/11/11 15:45:35;;;;;;;14.90;8.43;;;18.80;99.90;;;;;;5060205;28;20036;-71
2022/11/11 15:48:42;;;;;;;9.88;7.57;;;18.80;99.90;;;;;;5055737;28;20103;-71
2022/11/11 15:51:32;;;;;;;16.60;9.60;;;18.80;99.90;;;;;;5048255;28;20048;-72
2022/11/11 15:54:21;;;;;;;19.98;12.63;;;18.70;99.90;;;;;;5032530;28;20055;-72
2022/11/11 15:57:27;;;;;;;19.83;12.98;;;18.70;99.90;;;;;;5046777;28;20056;-72
2022/11/11 16:00:23;;;;;;;17.15;10.48;;;18.60;99.90;;;;;;5046790;28;20059;-73
2022/11/11 16:03:24;;;;;;;16.95;11.07;;;18.60;99.90;;;;;;5048213;28;20056;-71
2022/11/11 16:06:13;;;;;;;13.43;9.77;;;18.50;99.90;;;;;;5045935;28;20048;-71
2022/11/11 16:09:01;;;;;;;15.15;10.52;;;18.50;99.90;;;;;;5046797;28;20044;-72
2022/11/11 16:11:49;;;;;;;15.25;9.02;;;18.50;99.90;;;;;;5045840;28;20566;-73